Time;durP1;ratioP1;P1;durP2;ratioP2;P2;SDS_P1;SDS_P2;PMS_P1;PMS_P2;Temp;Humidity;BMP_temperature;BMP_pressure;BME280_temperature;BME280_humidity;BME280_pressure;Samples;Min_cycle;Max_cycle;Signal;HPM_P1;HPM_P2
2022/08/05 00:01:30;;;;;;;;;;;25.80;97.60;;;;;;5046713;28;20210;-64
2022/08/05 00:04:16;;;;;;;;;;;25.70;98.60;;;;;;5043977;28;20615;-64
2022/08/05 00:06:44;;;;;;;;;;;25.70;99.30;;;;;;5043308;28;20190;-65
2022/08/05 00:09:15;;;;;;;;;;;25.60;99.90;;;;;;5043416;28;20677;-65
2022/08/05 00:11:47;;;;;;;;;;;25.60;99.90;;;;;;5048446;28;20206;-65
2022/08/05 00:14:22;;;;;;;;;;;25.60;99.90;;;;;;5037197;28;20592;-65
2022/08/05 00:16:56;;;;;;;;;;;25.50;99.90;;;;;;5033046;28;20195;-65
2022/08/05 00:19:24;;;;;;;;;;;25.50;99.90;;;;;;5033090;28;20257;-65
2022/08/05 00:22:07;;;;;;;;;;;25.50;99.90;;;;;;5033074;28;20669;-66
2022/08/05 00:24:39;;;;;;;;;;;25.40;99.90;;;;;;5032674;28;20677;-64
2022/08/05 00:27:09;;;;;;;;;;;25.30;99.90;;;;;;5044765;28;20195;-65
2022/08/05 00:29:43;;;;;;;;;;;25.20;99.90;;;;;;5032895;28;20203;-64
2022/08/05 00:32:11;;;;;;;;;;;25.20;99.90;;;;;;5041211;28;20199;-64
2022/08/05 00:34:42;;;;;;;;;;;25.20;99.90;;;;;;5032657;28;20199;-64
2022/08/05 00:37:30;;;;;;;;;;;25.10;99.90;;;;;;5038012;28;20198;-63
2022/08/05 00:40:19;;;;;;;;;;;25.10;99.90;;;;;;5042255;28;20261;-64
2022/08/05 00:42:56;;;;;;;;;;;25.00;99.90;;;;;;5038779;28;20226;-64
2022/08/05 00:45:23;;;;;;;;;;;25.00;99.90;;;;;;5032416;28;20282;-64
2022/08/05 00:48:06;;;;;;;;;;;24.90;99.90;;;;;;5037041;28;20186;-65
2022/08/05 00:50:34;;;;;;;;;;;24.80;99.90;;;;;;5047328;28;20669;-64
2022/08/05 00:53:02;;;;;;;;;;;24.80;99.90;;;;;;5045474;28;20575;-65
2022/08/05 00:55:51;;;;;;;;;;;24.80;99.90;;;;;;5033387;28;20739;-64
2022/08/05 00:58:19;;;;;;;;;;;24.70;99.90;;;;;;5047668;28;20198;-64
2022/08/05 01:00:54;;;;;;;;;;;24.60;99.90;;;;;;5039794;28;20692;-64
2022/08/05 01:03:23;;;;;;;;;;;24.60;99.90;;;;;;5043504;28;20256;-64
2022/08/05 01:05:57;;;;;;;;;;;24.60;99.90;;;;;;5040516;28;20202;-64
2022/08/05 01:08:25;;;;;;;;;;;24.50;99.90;;;;;;5043597;28;20194;-64
2022/08/05 01:11:13;;;;;;;;;;;24.50;99.90;;;;;;5046848;28;20202;-64
2022/08/05 01:13:55;;;;;;;;;;;24.40;99.90;;;;;;5050401;28;20282;-64
2022/08/05 01:16:28;;;;;;;;;;;24.40;99.90;;;;;;5033856;28;20281;-63
2022/08/05 01:18:59;;;;;;;;;;;24.40;99.90;;;;;;5046258;28;20194;-65
2022/08/05 01:21:46;;;;;;;;;;;24.50;99.90;;;;;;5041210;28;20586;-64
2022/08/05 01:24:26;;;;;;;;;;;24.50;99.90;;;;;;5043145;28;20385;-64
2022/08/05 01:27:00;;;;;;;;;;;24.50;99.90;;;;;;5044786;28;20248;-66
2022/08/05 01:29:50;;;;;;;;;;;24.60;99.90;;;;;;5038602;28;20226;-65
2022/08/05 01:32:21;;;;;;;;;;;24.60;99.90;;;;;;5041161;28;20207;-65
2022/08/05 01:34:51;;;;;;;;;;;24.60;99.90;;;;;;5049922;28;21656;-65
2022/08/05 01:37:22;;;;;;;;;;;24.60;99.90;;;;;;5047106;28;20190;-65
2022/08/05 01:39:54;;;;;;;;;;;24.70;99.90;;;;;;5042724;28;20227;-66
2022/08/05 01:42:26;;;;;;;;;;;24.80;99.90;;;;;;5052515;28;20199;-66
2022/08/05 01:44:56;;;;;;;;;;;24.80;99.90;;;;;;5045607;28;20703;-65
2022/08/05 01:47:28;;;;;;;;;;;24.90;99.90;;;;;;5052370;28;20194;-66
2022/08/05 01:50:08;;;;;;;;;;;24.90;99.90;;;;;;5040109;28;20195;-65
2022/08/05 01:52:43;;;;;;;;;;;25.00;99.90;;;;;;5041738;28;20194;-65
2022/08/05 01:55:17;;;;;;;;;;;25.20;99.90;;;;;;5046404;28;20210;-65
2022/08/05 01:57:46;;;;;;;;;;;25.30;99.90;;;;;;5050643;28;20191;-65
2022/08/05 02:00:38;;;;;;;;;;;25.20;99.90;;;;;;5046306;28;20712;-65
2022/08/05 02:03:08;;;;;;;;;;;25.20;99.90;;;;;;5047544;28;20203;-64
2022/08/05 02:05:56;;;;;;;;;;;25.10;99.90;;;;;;5045063;28;20225;-64
2022/08/05 02:08:27;;;;;;;;;;;25.00;99.90;;;;;;5049100;28;20194;-65
2022/08/05 02:11:00;;;;;;;;;;;24.90;99.90;;;;;;5053043;28;20684;-65
2022/08/05 02:13:32;;;;;;;;;;;24.70;99.90;;;;;;5046767;28;20627;-64
2022/08/05 02:16:22;;;;;;;;;;;24.60;99.90;;;;;;5048457;28;20332;-65
2022/08/05 02:18:56;;;;;;;;;;;24.50;99.90;;;;;;5047629;28;20187;-64
2022/08/05 02:21:25;;;;;;;;;;;24.60;99.90;;;;;;5052843;28;20194;-65
2022/08/05 02:23:56;;;;;;;;;;;24.60;99.90;;;;;;5046386;28;20692;-65
2022/08/05 02:26:32;;;;;;;;;;;24.60;99.90;;;;;;5045735;28;20194;-64
2022/08/05 02:29:00;;;;;;;;;;;24.80;99.90;;;;;;5045704;28;20194;-64
2022/08/05 02:31:32;;;;;;;;;;;24.70;99.90;;;;;;5045820;28;20268;-64
2022/08/05 02:34:03;;;;;;;;;;;24.60;99.90;;;;;;5049260;28;20252;-64
2022/08/05 02:36:34;;;;;;;;;;;24.50;99.90;;;;;;5050020;28;20205;-65
2022/08/05 02:39:03;;;;;;;;;;;24.70;99.90;;;;;;5045579;28;20257;-65
2022/08/05 02:41:36;;;;;;;;;;;24.60;99.90;;;;;;5042216;28;20195;-65
2022/08/05 02:44:25;;;;;;;;;;;24.60;99.90;;;;;;5051142;28;20281;-65
2022/08/05 02:46:55;;;;;;;;;;;24.80;99.90;;;;;;5046560;28;20282;-65
2022/08/05 02:49:29;;;;;;;;;;;24.70;99.90;;;;;;5044626;28;21050;-65
2022/08/05 02:52:05;;;;;;;;;;;24.60;99.90;;;;;;5041287;28;20194;-66
2022/08/05 02:54:35;;;;;;;;;;;24.30;99.90;;;;;;5045202;28;20277;-66
2022/08/05 02:57:06;;;;;;;;;;;24.30;99.90;;;;;;5041404;28;20625;-66
2022/08/05 02:59:54;;;;;;;;;;;24.00;99.90;;;;;;5043984;28;20202;-65
2022/08/05 03:02:28;;;;;;;;;;;23.90;99.90;;;;;;5050778;28;20611;-65
2022/08/05 03:04:57;;;;;;;;;;;23.90;99.90;;;;;;5041840;28;20199;-66
2022/08/05 03:07:25;;;;;;;;;;;23.90;99.90;;;;;;5049018;28;20578;-66
2022/08/05 03:10:14;;;;;;;;;;;23.90;99.90;;;;;;5045430;28;20661;-66
2022/08/05 03:12:51;;;;;;;;;;;24.00;99.90;;;;;;5054539;28;20625;-65
2022/08/05 03:15:20;;;;;;;;;;;24.00;99.90;;;;;;5041259;28;20214;-65
2022/08/05 03:17:52;;;;;;;;;;;24.10;99.90;;;;;;5047132;28;20195;-66
2022/08/05 03:20:22;;;;;;;;;;;23.90;99.90;;;;;;5045270;28;20699;-66
2022/08/05 03:22:51;;;;;;;;;;;24.00;99.90;;;;;;5045553;28;20200;-65
2022/08/05 03:25:23;;;;;;;;;;;23.70;99.90;;;;;;5043462;28;20286;-65
2022/08/05 03:28:11;;;;;;;;;;;23.40;99.90;;;;;;5041120;28;20195;-65
2022/08/05 03:30:41;;;;;;;;;;;23.00;99.90;;;;;;5050156;28;20210;-66
2022/08/05 03:33:10;;;;;;;;;;;22.80;99.90;;;;;;5044925;28;20269;-65
2022/08/05 03:35:39;;;;;;;;;;;22.70;99.90;;;;;;5049932;28;20574;-65
2022/08/05 03:38:12;;;;;;;;;;;22.70;99.90;;;;;;5042729;28;20190;-67
2022/08/05 03:40:41;;;;;;;;;;;22.60;99.90;;;;;;5043870;28;20257;-67
2022/08/05 03:43:15;;;;;;;;;;;22.90;99.90;;;;;;5047368;28;20194;-67
2022/08/05 03:46:04;;;;;;;;;;;23.00;99.90;;;;;;5045485;28;20198;-67
2022/08/05 03:48:36;;;;;;;;;;;22.90;99.90;;;;;;5048201;28;20557;-67
2022/08/05 03:51:11;;;;;;;;;;;22.80;99.90;;;;;;5041903;28;20314;-66
2022/08/05 03:54:00;;;;;;;;;;;22.80;99.90;;;;;;5041609;28;20277;-65
2022/08/05 03:56:48;;;;;;;;;;;22.80;99.90;;;;;;5040638;28;20206;-65
2022/08/05 03:59:18;;;;;;;;;;;22.90;99.90;;;;;;5043949;28;20226;-65
2022/08/05 04:01:49;;;;;;;;;;;23.00;99.90;;;;;;5047730;28;20193;-65
2022/08/05 04:04:19;;;;;;;;;;;23.20;99.90;;;;;;5048684;28;20203;-65
2022/08/05 04:06:48;;;;;;;;;;;23.20;99.90;;;;;;5048445;28;20199;-65
2022/08/05 04:09:18;;;;;;;;;;;23.30;99.90;;;;;;5049488;28;20656;-65
2022/08/05 04:11:53;;;;;;;;;;;23.40;99.90;;;;;;5046569;28;20195;-65
2022/08/05 04:14:24;;;;;;;;;;;23.60;99.90;;;;;;5050606;28;20202;-65
2022/08/05 04:16:58;;;;;;;;;;;23.30;99.90;;;;;;5051912;28;20218;-67
2022/08/05 04:19:28;;;;;;;;;;;23.20;99.90;;;;;;5044984;28;20201;-67
2022/08/05 04:21:56;;;;;;;;;;;23.10;99.90;;;;;;5041962;28;20278;-67
2022/08/05 04:24:39;;;;;;;;;;;22.90;99.90;;;;;;5047637;28;20212;-67
2022/08/05 04:27:11;;;;;;;;;;;22.80;99.90;;;;;;5042966;28;20206;-66
2022/08/05 04:29:39;;;;;;;;;;;22.80;99.90;;;;;;5043992;28;20681;-65
2022/08/05 04:32:07;;;;;;;;;;;22.60;99.90;;;;;;5043652;28;20198;-66
2022/08/05 04:34:37;;;;;;;;;;;22.60;99.90;;;;;;5052256;28;20209;-66
2022/08/05 04:37:09;;;;;;;;;;;22.40;99.90;;;;;;5045416;28;21648;-67
2022/08/05 04:39:37;;;;;;;;;;;22.40;99.90;;;;;;5045995;28;20127;-64
2022/08/05 04:42:07;;;;;;;;;;;22.40;99.90;;;;;;5039581;28;20217;-65
2022/08/05 04:44:35;;;;;;;;;;;22.30;99.90;;;;;;5041850;28;20579;-65
2022/08/05 04:47:03;;;;;;;;;;;22.40;99.90;;;;;;5052699;28;20201;-65
2022/08/05 04:49:38;;;;;;;;;;;22.40;99.90;;;;;;5046867;28;20222;-65
2022/08/05 04:52:26;;;;;;;;;;;22.40;99.90;;;;;;5041874;28;20828;-66
2022/08/05 04:54:55;;;;;;;;;;;22.40;99.90;;;;;;5044511;28;20241;-65
2022/08/05 04:57:24;;;;;;;;;;;22.60;99.90;;;;;;5050317;28;20199;-65
2022/08/05 04:59:56;;;;;;;;;;;22.50;99.90;;;;;;5041395;28;20191;-65
2022/08/05 05:02:25;;;;;;;;;;;22.40;99.90;;;;;;5059348;28;20214;-65
2022/08/05 05:05:06;;;;;;;;;;;22.60;99.90;;;;;;5042296;28;20260;-65
2022/08/05 05:07:53;;;;;;;;;;;22.70;99.90;;;;;;5046776;28;20643;-65
2022/08/05 05:10:27;;;;;;;;;;;22.60;99.90;;;;;;5045386;28;20195;-65
2022/08/05 05:12:56;;;;;;;;;;;22.50;99.90;;;;;;5051876;28;20240;-65
2022/08/05 05:15:24;;;;;;;;;;;22.40;99.90;;;;;;5051074;28;20627;-66
2022/08/05 05:18:12;;;;;;;;;;;22.40;99.90;;;;;;5037636;28;20277;-66
2022/08/05 05:20:42;;;;;;;;;;;22.30;99.90;;;;;;5039416;28;20724;-66
2022/08/05 05:23:13;;;;;;;;;;;22.40;99.90;;;;;;5045240;28;20661;-66
2022/08/05 05:25:46;;;;;;;;;;;22.40;99.90;;;;;;5042956;28;20249;-65
2022/08/05 05:28:14;;;;;;;;;;;22.30;99.90;;;;;;5045519;28;20245;-66
2022/08/05 05:30:42;;;;;;;;;;;22.40;99.90;;;;;;5050956;28;20198;-66
2022/08/05 05:33:16;;;;;;;;;;;22.80;99.90;;;;;;5052012;28;20289;-66
2022/08/05 05:35:51;;;;;;;;;;;22.90;99.90;;;;;;5043345;28;20208;-65
2022/08/05 05:38:19;;;;;;;;;;;22.90;99.90;;;;;;5051891;28;20277;-65
2022/08/05 05:40:54;;;;;;;;;;;22.80;99.90;;;;;;5038524;28;20221;-66
2022/08/05 05:43:22;;;;;;;;;;;22.90;99.90;;;;;;5047742;28;20225;-66
2022/08/05 05:46:10;;;;;;;;;;;22.90;99.90;;;;;;5044077;28;20613;-66
2022/08/05 05:48:46;;;;;;;;;;;22.90;99.90;;;;;;5045515;28;20183;-66
2022/08/05 05:51:20;;;;;;;;;;;22.90;99.90;;;;;;5051384;28;20265;-66
2022/08/05 05:53:48;;;;;;;;;;;22.90;99.90;;;;;;5045212;28;20747;-66
2022/08/05 05:56:26;;;;;;;;;;;23.10;99.90;;;;;;5046755;28;20755;-65
2022/08/05 05:59:00;;;;;;;;;;;23.30;99.90;;;;;;5046978;28;20199;-65
2022/08/05 06:01:30;;;;;;;;;;;23.20;99.90;;;;;;5056745;28;20627;-66
2022/08/05 06:04:06;;;;;;;;;;;23.20;99.90;;;;;;5045305;28;20222;-64
2022/08/05 06:06:36;;;;;;;;;;;23.10;99.90;;;;;;5049097;28;20742;-65
2022/08/05 06:09:08;;;;;;;;;;;23.20;99.90;;;;;;5044576;28;20608;-65
2022/08/05 06:11:53;;;;;;;;;;;23.20;99.90;;;;;;5043346;28;20200;-65
2022/08/05 06:14:29;;;;;;;;;;;23.40;99.90;;;;;;5045910;28;20198;-64
2022/08/05 06:16:57;;;;;;;;;;;23.60;99.90;;;;;;5048567;28;20213;-65
2022/08/05 06:19:25;;;;;;;;;;;23.80;99.90;;;;;;5061302;28;20230;-65
2022/08/05 06:22:03;;;;;;;;;;;23.80;99.90;;;;;;5036853;28;20245;-65
2022/08/05 06:24:33;;;;;;;;;;;24.00;99.90;;;;;;5037791;28;20211;-65
2022/08/05 06:27:01;;;;;;;;;;;24.00;99.90;;;;;;5034915;28;20203;-65
2022/08/05 06:29:30;;;;;;;;;;;24.10;99.90;;;;;;5045193;28;20190;-65
2022/08/05 06:32:18;;;;;;;;;;;24.30;99.90;;;;;;5048082;28;20191;-65
2022/08/05 06:34:53;;;;;;;;;;;24.50;99.90;;;;;;5048262;28;20266;-64
2022/08/05 06:37:26;;;;;;;;;;;24.40;99.90;;;;;;5046249;28;20270;-65
2022/08/05 06:40:15;;;;;;;;;;;24.40;99.90;;;;;;5044572;28;20720;-65
2022/08/05 06:42:48;;;;;;;;;;;24.30;99.90;;;;;;5037817;28;20194;-65
2022/08/05 06:45:19;;;;;;;;;;;24.20;99.90;;;;;;5037455;28;22074;-65
2022/08/05 06:48:07;;;;;;;;;;;24.20;99.90;;;;;;5041832;28;20285;-65
2022/08/05 06:50:55;;;;;;;;;;;23.90;99.90;;;;;;5044542;28;20243;-64
2022/08/05 06:53:24;;;;;;;;;;;24.00;99.90;;;;;;5046977;28;20187;-65
2022/08/05 06:55:55;;;;;;;;;;;23.80;99.90;;;;;;5046832;28;20211;-64
2022/08/05 06:58:23;;;;;;;;;;;23.90;99.90;;;;;;5038883;28;20625;-65
2022/08/05 07:01:04;;;;;;;;;;;23.90;99.90;;;;;;5040722;28;20199;-65
2022/08/05 07:03:33;;;;;;;;;;;24.10;99.90;;;;;;5040992;28;20259;-64
2022/08/05 07:06:02;;;;;;;;;;;24.10;99.90;;;;;;5042036;28;20252;-64
2022/08/05 07:08:43;;;;;;;;;;;24.00;99.90;;;;;;5044530;28;20198;-64
2022/08/05 07:11:14;;;;;;;;;;;24.20;99.90;;;;;;5042166;28;20575;-66
2022/08/05 07:19:34;;;;;;;;;;;23.80;99.90;;;;;;5040430;28;20984;-66
2022/08/05 07:22:22;;;;;;;;;;;23.90;99.90;;;;;;5049063;28;20268;-65
2022/08/05 07:24:57;;;;;;;;;;;24.00;99.90;;;;;;5042631;28;20202;-64
2022/08/05 07:27:25;;;;;;;;;;;24.00;99.90;;;;;;5046311;28;20732;-65
2022/08/05 07:30:12;;;;;;;;;;;24.00;99.90;;;;;;5043636;28;20269;-65
2022/08/05 07:32:57;;;;;;;;;;;23.90;99.90;;;;;;5044323;28;20190;-65
2022/08/05 07:35:25;;;;;;;;;;;23.80;99.90;;;;;;5042976;28;20293;-65
2022/08/05 07:38:13;;;;;;;;;;;23.70;99.90;;;;;;5042359;28;20230;-64
2022/08/05 07:41:02;;;;;;;;;;;23.80;99.90;;;;;;5048817;28;20241;-65
2022/08/05 07:43:50;;;;;;;;;;;23.80;99.90;;;;;;5044584;28;20199;-65
2022/08/05 07:46:18;;;;;;;;;;;23.80;99.90;;;;;;5043654;28;20202;-65
2022/08/05 07:48:52;;;;;;;;;;;23.90;99.90;;;;;;5039504;28;20207;-65
2022/08/05 07:51:32;;;;;;;;;;;24.00;99.90;;;;;;5044441;28;20195;-65
2022/08/05 07:54:05;;;;;;;;;;;23.90;99.90;;;;;;5041144;28;20208;-65
2022/08/05 07:56:36;;;;;;;;;;;23.90;99.90;;;;;;5044281;28;20203;-64
2022/08/05 07:59:24;;;;;;;;;;;23.90;99.90;;;;;;5045956;28;20218;-64
2022/08/05 08:02:08;;;;;;;;;;;23.80;99.90;;;;;;5042806;28;20197;-65
2022/08/05 08:04:42;;;;;;;;;;;23.80;99.90;;;;;;5043584;28;20271;-66
2022/08/05 08:07:12;;;;;;;;;;;23.80;99.90;;;;;;5042096;28;20582;-66
2022/08/05 08:09:39;;;;;;;;;;;23.80;99.90;;;;;;5042437;28;20683;-66
2022/08/05 08:12:09;;;;;;;;;;;23.90;99.90;;;;;;5046828;28;20361;-67
2022/08/05 08:14:56;;;;;;;;;;;24.20;99.90;;;;;;5049223;28;20221;-66
2022/08/05 08:17:30;;;;;;;;;;;24.30;99.90;;;;;;5039508;28;20294;-66
2022/08/05 08:19:58;;;;;;;;;;;24.40;99.90;;;;;;5041142;28;20199;-66
2022/08/05 08:22:50;;;;;;;;;;;24.50;99.90;;;;;;5042451;28;20249;-65
2022/08/05 08:25:18;;;;;;;;;;;24.60;99.90;;;;;;5042594;28;20690;-66
2022/08/05 08:28:07;;;;;;;;;;;24.70;99.90;;;;;;5050857;28;20205;-66
2022/08/05 08:30:55;;;;;;;;;;;24.80;99.90;;;;;;5047671;28;20739;-66
2022/08/05 08:33:23;;;;;;;;;;;24.80;99.90;;;;;;5043106;28;20237;-66
2022/08/05 08:35:54;;;;;;;;;;;24.70;99.90;;;;;;5042904;28;20198;-66
2022/08/05 08:38:42;;;;;;;;;;;24.50;99.90;;;;;;5043485;28;20194;-67
2022/08/05 08:41:20;;;;;;;;;;;24.60;99.90;;;;;;5054209;28;20319;-68
2022/08/05 08:43:55;;;;;;;;;;;24.70;99.90;;;;;;5051033;28;20202;-67
2022/08/05 08:46:44;;;;;;;;;;;24.70;99.90;;;;;;5048370;28;20253;-67
2022/08/05 08:49:13;;;;;;;;;;;24.80;99.90;;;;;;5038978;28;20207;-68
2022/08/05 08:52:04;;;;;;;;;;;24.90;99.90;;;;;;5043362;28;20248;-66
2022/08/05 08:54:40;;;;;;;;;;;24.90;99.90;;;;;;5040245;28;20244;-67
2022/08/05 08:57:09;;;;;;;;;;;24.90;99.90;;;;;;5041437;28;20213;-66
2022/08/05 08:59:42;;;;;;;;;;;25.00;99.90;;;;;;5036442;28;20668;-67
2022/08/05 09:02:17;;;;;;;;;;;25.00;99.90;;;;;;5053162;28;20572;-66
2022/08/05 09:04:46;;;;;;;;;;;25.10;99.90;;;;;;5040352;28;20195;-66
2022/08/05 09:07:34;;;;;;;;;;;25.00;99.90;;;;;;5046482;28;20253;-66
2022/08/05 09:10:22;;;;;;;;;;;25.10;99.90;;;;;;5034239;28;20661;-66
2022/08/05 09:12:56;;;;;;;;;;;25.10;99.90;;;;;;5040551;28;20206;-66
2022/08/05 09:15:33;;;;;;;;;;;25.20;99.90;;;;;;5044781;28;20253;-66
2022/08/05 09:18:06;;;;;;;;;;;25.20;99.90;;;;;;5014155;28;20202;-66
2022/08/05 09:20:35;;;;;;;;;;;25.20;99.90;;;;;;5031982;28;20198;-66
2022/08/05 09:23:06;;;;;;;;;;;25.20;99.90;;;;;;5032399;28;20297;-66
2022/08/05 09:25:37;;;;;;;;;;;25.40;99.90;;;;;;5044796;28;20577;-66
2022/08/05 09:28:26;;;;;;;;;;;25.40;99.90;;;;;;5034141;28;20269;-66
2022/08/05 09:31:04;;;;;;;;;;;25.40;99.90;;;;;;5033287;28;20567;-66
2022/08/05 09:33:53;;;;;;;;;;;25.40;99.90;;;;;;5045073;28;20230;-66
2022/08/05 09:36:21;;;;;;;;;;;25.40;99.90;;;;;;5050982;28;20198;-66
2022/08/05 09:39:01;;;;;;;;;;;25.30;99.90;;;;;;5051290;28;20234;-66
2022/08/05 09:41:29;;;;;;;;;;;25.20;99.90;;;;;;5036340;28;20681;-66
2022/08/05 09:44:04;;;;;;;;;;;25.20;99.90;;;;;;5034357;28;20069;-66
2022/08/05 09:46:34;;;;;;;;;;;25.40;99.90;;;;;;5031872;28;20198;-67
2022/08/05 09:49:05;;;;;;;;;;;25.50;99.90;;;;;;5031637;28;20199;-66
2022/08/05 09:51:47;;;;;;;;;;;25.60;99.90;;;;;;5031590;28;20194;-66
2022/08/05 09:54:17;;;;;;;;;;;25.80;99.90;;;;;;5044692;28;20241;-67
2022/08/05 09:56:56;;;;;;;;;;;26.00;99.90;;;;;;5031952;28;20254;-66
2022/08/05 09:59:28;;;;;;;;;;;26.00;99.90;;;;;;5033525;28;20227;-66
2022/08/05 10:02:03;;;;;;;;;;;25.90;99.90;;;;;;5035610;28;20210;-66
2022/08/05 10:04:34;;;;;;;;;;;25.80;99.90;;;;;;5035602;28;20203;-66
2022/08/05 10:07:06;;;;;;;;;;;25.70;99.90;;;;;;5035649;28;20712;-66
2022/08/05 10:09:55;;;;;;;;;;;25.60;99.90;;;;;;5052571;28;20252;-66
2022/08/05 10:12:42;;;;;;;;;;;25.50;99.90;;;;;;5042346;28;20244;-66
2022/08/05 10:15:18;;;;;;;;;;;25.50;99.90;;;;;;5035450;28;20210;-66
2022/08/05 10:18:05;;;;;;;;;;;25.60;99.90;;;;;;5035195;28;20203;-66
2022/08/05 10:20:34;;;;;;;;;;;25.70;99.90;;;;;;5035163;28;20289;-66
2022/08/05 10:23:02;;;;;;;;;;;26.00;99.90;;;;;;5035360;28;20348;-66
2022/08/05 10:25:30;;;;;;;;;;;26.10;99.90;;;;;;5035214;28;20199;-66
2022/08/05 10:27:58;;;;;;;;;;;26.10;99.90;;;;;;5042073;28;20229;-66
2022/08/05 10:30:44;;;;;;;;;;;26.20;99.90;;;;;;5053933;28;20209;-66
2022/08/05 10:33:34;;;;;;;;;;;26.30;99.90;;;;;;5054358;28;20199;-66
2022/08/05 10:36:03;;;;;;;;;;;26.40;99.90;;;;;;5054196;28;20289;-66
2022/08/05 10:38:32;;;;;;;;;;;26.30;99.90;;;;;;5036554;28;20218;-66
2022/08/05 10:41:04;;;;;;;;;;;26.30;99.90;;;;;;5042420;28;20197;-67
2022/08/05 10:43:40;;;;;;;;;;;26.20;99.90;;;;;;5049891;28;20221;-67
2022/08/05 10:46:09;;;;;;;;;;;26.30;99.90;;;;;;5049357;28;20598;-68
2022/08/05 10:48:40;;;;;;;;;;;26.30;99.90;;;;;;5048696;28;20226;-65
2022/08/05 10:51:25;;;;;;;;;;;26.50;99.90;;;;;;5048719;28;20195;-67
2022/08/05 10:53:56;;;;;;;;;;;26.50;99.90;;;;;;5037291;28;20253;-66
2022/08/05 10:56:28;;;;;;;;;;;26.50;99.90;;;;;;5039114;28;20215;-66
2022/08/05 10:59:04;;;;;;;;;;;26.50;99.90;;;;;;5049407;28;20205;-66
2022/08/05 11:01:41;;;;;;;;;;;26.50;99.90;;;;;;5030752;28;20293;-66
2022/08/05 11:04:30;;;;;;;;;;;26.60;99.90;;;;;;5049165;28;20202;-66
2022/08/05 11:07:05;;;;;;;;;;;26.60;99.90;;;;;;5047436;28;20257;-66
2022/08/05 11:09:54;;;;;;;;;;;26.60;99.90;;;;;;5050284;28;20194;-66
2022/08/05 11:12:45;;;;;;;;;;;26.40;99.90;;;;;;5035603;28;20278;-66
2022/08/05 11:15:22;;;;;;;;;;;26.40;99.90;;;;;;5041360;28;20578;-66
2022/08/05 11:17:50;;;;;;;;;;;26.40;99.90;;;;;;5048212;28;20293;-66
2022/08/05 11:20:39;;;;;;;;;;;26.40;99.90;;;;;;5049012;28;20573;-66
2022/08/05 11:23:29;;;;;;;;;;;26.30;99.90;;;;;;5037795;28;20249;-66
2022/08/05 11:26:21;;;;;;;;;;;26.10;99.90;;;;;;5036618;28;20687;-65
2022/08/05 11:28:56;;;;;;;;;;;26.10;99.90;;;;;;5049316;28;20183;-66
2022/08/05 11:31:32;;;;;;;;;;;26.20;99.90;;;;;;5053823;28;20194;-66
2022/08/05 11:34:34;;;;;;;;;;;26.20;99.90;;;;;;5047888;28;20210;-66
2022/08/05 11:37:04;;;;;;;;;;;26.50;99.90;;;;;;5048532;28;20727;-66
2022/08/05 11:39:52;;;;;;;;;;;26.80;99.90;;;;;;5054017;28;20277;-66
2022/08/05 11:42:27;;;;;;;;;;;27.10;99.90;;;;;;5049403;28;20604;-67
2022/08/05 11:45:00;;;;;;;;;;;27.50;99.90;;;;;;5048906;28;20573;-66
2022/08/05 11:47:30;;;;;;;;;;;28.00;99.90;;;;;;5045363;28;20614;-66
2022/08/05 11:50:15;;;;;;;;;;;28.50;99.90;;;;;;5045869;28;20068;-67
2022/08/05 11:52:45;;;;;;;;;;;29.00;99.90;;;;;;5047406;28;20202;-67
2022/08/05 11:55:17;;;;;;;;;;;29.40;99.90;;;;;;5048211;28;20285;-67
2022/08/05 11:57:46;;;;;;;;;;;29.90;99.90;;;;;;5051154;28;20229;-67
2022/08/05 12:00:34;;;;;;;;;;;30.20;99.90;;;;;;5048200;28;20222;-67
2022/08/05 12:03:19;;;;;;;;;;;30.50;99.90;;;;;;5047952;28;20190;-66
2022/08/05 12:06:03;;;;;;;;;;;30.50;99.90;;;;;;5049254;28;20199;-66
2022/08/05 12:08:44;;;;;;;;;;;30.70;99.90;;;;;;5050322;28;20248;-66
2022/08/05 12:11:18;;;;;;;;;;;31.00;99.90;;;;;;5047045;28;20190;-66
2022/08/05 12:13:53;;;;;;;;;;;31.20;99.90;;;;;;5039848;28;20194;-67
2022/08/05 12:16:26;;;;;;;;;;;31.40;99.90;;;;;;5040975;28;20567;-66
2022/08/05 12:18:55;;;;;;;;;;;31.20;99.90;;;;;;5044903;28;21815;-66
2022/08/05 12:21:24;;;;;;;;;;;30.50;99.90;;;;;;5043996;28;20190;-66
2022/08/05 12:24:02;;;;;;;;;;;29.90;99.90;;;;;;5041006;28;20266;-68
2022/08/05 12:26:34;;;;;;;;;;;29.40;99.90;;;;;;5047033;28;20277;-66
2022/08/05 12:29:03;;;;;;;;;;;29.00;99.90;;;;;;5055609;28;20199;-67
2022/08/05 12:31:32;;;;;;;;;;;28.60;99.90;;;;;;5048842;28;20206;-66
2022/08/05 12:34:17;;;;;;;;;;;28.20;99.90;;;;;;5046467;28;20248;-66
2022/08/05 12:36:49;;;;;;;;;;;28.00;99.90;;;;;;5051332;28;20216;-66
2022/08/05 12:39:18;;;;;;;;;;;28.00;99.90;;;;;;5049887;28;20574;-66
2022/08/05 12:41:46;;;;;;;;;;;28.10;99.90;;;;;;5045735;28;20191;-66
2022/08/05 12:44:16;;;;;;;;;;;28.10;99.90;;;;;;5051200;28;20194;-66
2022/08/05 12:47:00;;;;;;;;;;;28.20;99.90;;;;;;5052005;28;20213;-66
2022/08/05 12:49:38;;;;;;;;;;;28.60;99.90;;;;;;5051127;28;20203;-66
2022/08/05 12:52:27;;;;;;;;;;;29.20;99.90;;;;;;5048572;28;20199;-66
2022/08/05 12:55:15;;;;;;;;;;;29.10;99.90;;;;;;5045343;28;20202;-66
2022/08/05 12:57:43;;;;;;;;;;;28.70;99.90;;;;;;5046600;28;20194;-66
2022/08/05 13:00:32;;;;;;;;;;;28.60;99.90;;;;;;5044732;28;20289;-66
2022/08/05 13:03:20;;;;;;;;;;;28.60;99.90;;;;;;5043668;28;20703;-67
2022/08/05 13:05:49;;;;;;;;;;;28.60;99.90;;;;;;5044848;28;20577;-66
2022/08/05 13:08:17;;;;;;;;;;;28.40;99.90;;;;;;5040123;28;20220;-66
2022/08/05 13:10:48;;;;;;;;;;;28.10;99.90;;;;;;5051125;28;20281;-66
2022/08/05 13:13:19;;;;;;;;;;;28.00;99.90;;;;;;5042233;28;20199;-67
2022/08/05 13:16:11;;;;;;;;;;;27.60;99.90;;;;;;5043915;28;20203;-65
2022/08/05 13:18:50;;;;;;;;;;;27.40;99.90;;;;;;5045824;28;20285;-65
2022/08/05 13:21:18;;;;;;;;;;;27.10;99.90;;;;;;5048649;28;20194;-66
2022/08/05 13:23:46;;;;;;;;;;;27.00;99.90;;;;;;5049837;28;20194;-68
2022/08/05 13:26:20;;;;;;;;;;;26.80;99.90;;;;;;5046748;28;20277;-66
2022/08/05 13:28:57;;;;;;;;;;;26.90;99.90;;;;;;5047016;28;20605;-66
2022/08/05 13:31:26;;;;;;;;;;;27.10;99.90;;;;;;5044491;28;20237;-66
2022/08/05 13:34:14;;;;;;;;;;;27.00;99.90;;;;;;5046437;28;20664;-66
2022/08/05 13:36:51;;;;;;;;;;;26.80;99.90;;;;;;5037474;28;20277;-66
2022/08/05 13:39:19;;;;;;;;;;;26.80;99.90;;;;;;5041724;28;20191;-66
2022/08/05 13:42:09;;;;;;;;;;;26.50;99.90;;;;;;5044204;28;20194;-67
2022/08/05 13:44:41;;;;;;;;;;;26.40;99.90;;;;;;5042158;28;20197;-67
2022/08/05 13:47:12;;;;;;;;;;;26.10;99.90;;;;;;5040254;28;20596;-67
2022/08/05 13:50:01;;;;;;;;;;;26.00;99.90;;;;;;5041185;28;20198;-67
2022/08/05 13:52:33;;;;;;;;;;;25.30;99.90;;;;;;5050930;28;20710;-66
2022/08/05 13:55:02;;;;;;;;;;;24.70;99.90;;;;;;5046187;28;20212;-66
2022/08/05 13:57:37;;;;;;;;;;;24.60;99.90;;;;;;5044124;28;20590;-67
2022/08/05 14:00:18;;;;;;;;;;;24.60;99.90;;;;;;5043039;28;20198;-66
2022/08/05 14:02:53;;;;;;;;;;;24.70;99.90;;;;;;5037700;28;20564;-66
2022/08/05 14:05:22;;;;;;;;;;;24.70;99.90;;;;;;5050057;28;20214;-65
2022/08/05 14:08:09;;;;;;;;;;;24.40;99.90;;;;;;5037107;28;20190;-65
2022/08/05 14:10:53;;;;;;;;;;;24.40;99.90;;;;;;5040268;28;20624;-66
2022/08/05 14:13:42;;;;;;;;;;;24.40;99.90;;;;;;5036885;28;20229;-65
2022/08/05 14:16:14;;;;;;;;;;;24.70;99.90;;;;;;5039486;28;20199;-65
2022/08/05 14:18:43;;;;;;;;;;;24.90;99.90;;;;;;5036385;28;20237;-66
2022/08/05 14:21:11;;;;;;;;;;;25.00;99.90;;;;;;5040810;28;20253;-66
2022/08/05 14:23:59;;;;;;;;;;;25.40;99.90;;;;;;5044637;28;20190;-66
2022/08/05 14:26:27;;;;;;;;;;;25.60;99.90;;;;;;5038760;28;20715;-66
2022/08/05 14:29:06;;;;;;;;;;;25.60;99.90;;;;;;5040218;28;20199;-66
2022/08/05 14:31:43;;;;;;;;;;;25.40;99.90;;;;;;5036195;28;20203;-65
2022/08/05 14:34:31;;;;;;;;;;;25.50;99.90;;;;;;5043666;28;20187;-66
2022/08/05 14:37:02;;;;;;;;;;;25.60;99.90;;;;;;5037033;28;20200;-65
2022/08/05 14:39:31;;;;;;;;;;;25.10;99.90;;;;;;5040504;28;20237;-66
2022/08/05 14:42:18;;;;;;;;;;;24.90;99.90;;;;;;5038504;28;20641;-66
2022/08/05 14:44:50;;;;;;;;;;;24.30;99.90;;;;;;5037832;28;20257;-65
2022/08/05 14:47:18;;;;;;;;;;;24.20;99.90;;;;;;5049918;28;20208;-65
2022/08/05 14:50:06;;;;;;;;;;;23.90;99.90;;;;;;5043842;28;20222;-65
2022/08/05 14:52:45;;;;;;;;;;;23.50;99.90;;;;;;5047562;28;20249;-65
2022/08/05 14:55:25;;;;;;;;;;;23.20;99.90;;;;;;5047559;28;20206;-65
2022/08/05 14:58:07;;;;;;;;;;;23.00;99.90;;;;;;5037854;28;20719;-65
2022/08/05 15:00:40;;;;;;;;;;;22.80;99.90;;;;;;5043853;28;20202;-64
2022/08/05 15:03:25;;;;;;;;;;;22.60;99.90;;;;;;5046778;28;20269;-65
2022/08/05 15:05:59;;;;;;;;;;;22.50;99.90;;;;;;5050406;28;20214;-65
2022/08/05 15:08:39;;;;;;;;;;;22.30;99.90;;;;;;5050283;28;20631;-65
2022/08/05 15:11:27;;;;;;;;;;;22.40;99.90;;;;;;5048694;28;20229;-65